FMNMFQMA

Guest
Details From FMNM - Philibert Tsiranana
To FQMA - Maputo
Flight Number -
Tags Generated
Created
Modified
Stats Distance 988 nm / 1,830 km
Max Altitude 0 ft / 0 m
Waypoints 3
Social Downloads 0
Likes 0
Share VATSIM

Download

Looking for another format? Having issues loading an existing format? Contact us
Advertisement - Login to hide

Notes

Generated

Route

FMNM VMA FQMA

ID Type Via Altitude Latitude Longitude Leg Dist Tot Dist Heading (true) Name
O FMNM APT - 0 ft / 0 m -15.66046˚ 46.34422˚ - 0 nm - -
VMA VOR - 0 ft / 0 m -25.86891˚ 32.60501˚ 984 nm 984 nm 229° / 234° MAPUTO VOR-DME
O FQMA APT - 0 ft / 0 m -25.92119˚ 32.56636˚ 3 nm 987 nm 214° / 214° -

Altitude Profile

Advertisement - Login to hide

Weather


0- 5 10 15 20 25 30 35+ Temperature / ° C

Clouds and Precipitation
Forecast for 2017-12-18 12:00 UTC. Updated 11 minutes ago

Ground ~20,000 ft ~40,000 ft Winds

FMNM

Details ICAO FMNM (MJN)
Name PHILIBERT TSIRANANA
Region Comoros, Mayotte, Réunion and Madagascar
Timezone Indian/Antananarivo (UTC+3.0)
Stats Elevation 87 ft / 27 m (AMSL)
Location -15.667144° 46.351829°
Runways 1
Magnetic Variation 11.235° W

METAR

FMNM 180700Z 10010KT 9999 FEW020CB 32/20 Q1014 NOSIG

Decode

TAF

TAF FMNM 180500Z 1806/1906 08008KT 9999 FEW020CB SCT040 BECMG 1807/1810 34010KT PROB30 TEMPO 1818/1906 4000 TSRA FEW010 BKN015CB

Decode

Departure Runways

ID Width Length Bearing (true) Bearing (mag) Surface Threshold Offset Overrun Length
14 148 ft / 45 m 7,235 ft / 2,205 m 132.37° 143.61° Asphalt 0 ft / 0 m 98 ft / 30 m
32 148 ft / 45 m 7,235 ft / 2,205 m 312.37° 323.61° Asphalt 0 ft / 0 m 98 ft / 30 m

FQMA

Details ICAO FQMA (MPM)
Name MAPUTO
Region Mozambique
Timezone Africa/Maputo (UTC+2.0)
Stats Elevation 145 ft / 44 m (AMSL)
Location -25.915529° 32.576901°
Runways 2
Magnetic Variation 20.196° W

METAR

FQMA 180700Z 09007KT 9999 SCT020 27/20 Q1015 NOSIG

Decode

TAF

Not found

Destination Runways

ID Width Length Bearing (true) Bearing (mag) Surface Threshold Offset Overrun Length
05 148 ft / 45 m 12,063 ft / 3,677 m 28.75° 48.95° Asphalt 0 ft / 0 m 238 ft / 73 m
10 148 ft / 45 m 5,560 ft / 1,695 m 86.29° 106.49° Asphalt 0 ft / 0 m 0 ft / 0 m
23 148 ft / 45 m 12,063 ft / 3,677 m 208.74° 228.94° Asphalt 0 ft / 0 m 984 ft / 300 m
28 148 ft / 45 m 5,560 ft / 1,695 m 266.28° 286.48° Asphalt 0 ft / 0 m 0 ft / 0 m

Approach Navaids

Runway Type Ident Frequency Range Bearing (true) Bearing (mag) Slope Elevation
23 Localiser IMA 110.30 MHz 18 nm / 33 km 208.75° 228.95° - 145 ft / 44 m (AMSL)
23 Glidescope IMA 110.30 MHz 10 nm / 19 km 208.75° 228.94° 3.00° 145 ft / 44 m (AMSL)